Time;durP1;ratioP1;P1;durP2;ratioP2;P2;SDS_P1;SDS_P2;PMS_P1;PMS_P2;Temp;Humidity;BMP_temperature;BMP_pressure;BME280_temperature;BME280_humidity;BME280_pressure;Samples;Min_cycle;Max_cycle;Signal;HPM_P1;HPM_P2
2021/04/17 00:01:47;;;;;;;6.73;2.77;;;6.10;92.50;;;;;;5055226;28;20449;-85
2021/04/17 00:04:13;;;;;;;8.50;3.07;;;6.00;92.30;;;;;;5038329;28;20528;-86
2021/04/17 00:06:39;;;;;;;8.70;2.93;;;5.90;92.50;;;;;;5055211;28;20461;-86
2021/04/17 00:09:12;;;;;;;3.73;2.70;;;5.90;92.80;;;;;;5055014;28;20466;-86
2021/04/17 00:11:39;;;;;;;6.00;2.90;;;5.90;93.10;;;;;;5056479;28;20946;-86
2021/04/17 00:14:09;;;;;;;4.93;3.00;;;5.90;93.00;;;;;;5055429;28;20905;-85
2021/04/17 00:16:35;;;;;;;11.07;3.23;;;5.80;92.80;;;;;;5056461;28;20425;-85
2021/04/17 00:19:01;;;;;;;10.97;3.67;;;5.80;93.00;;;;;;5056426;28;20458;-86
2021/04/17 00:21:26;;;;;;;5.73;3.17;;;5.80;93.40;;;;;;5056748;28;20766;-86
2021/04/17 00:23:52;;;;;;;8.83;2.70;;;5.80;93.30;;;;;;5056654;28;20183;-86
2021/04/17 00:26:18;;;;;;;4.33;3.27;;;5.80;93.20;;;;;;5056657;28;20261;-86
2021/04/17 00:28:44;;;;;;;5.47;3.20;;;5.80;93.50;;;;;;5056112;28;20481;-86
2021/04/17 00:31:10;;;;;;;3.77;2.63;;;5.70;93.80;;;;;;5056219;28;20967;-86
2021/04/17 00:33:35;;;;;;;7.83;2.77;;;5.70;94.00;;;;;;5055988;28;20176;-86
2021/04/17 00:36:01;;;;;;;5.47;3.13;;;5.70;94.20;;;;;;5056455;28;20282;-85
2021/04/17 00:38:28;;;;;;;5.17;2.70;;;5.70;94.40;;;;;;5037609;28;20297;-85
2021/04/17 00:40:54;;;;;;;6.67;2.80;;;5.70;94.40;;;;;;5038424;28;20415;-86
2021/04/17 00:43:20;;;;;;;5.40;2.77;;;5.60;94.60;;;;;;5038429;28;20446;-86
2021/04/17 00:45:46;;;;;;;4.63;2.67;;;5.60;94.50;;;;;;5054925;28;20422;-86
2021/04/17 00:48:13;;;;;;;6.73;2.90;;;5.60;94.80;;;;;;5053986;28;20228;-84
2021/04/17 00:50:40;;;;;;;9.50;3.90;;;5.60;94.70;;;;;;5055277;28;20176;-86
2021/04/17 00:53:07;;;;;;;6.50;3.37;;;5.50;94.80;;;;;;5075210;28;20438;-86
2021/04/17 00:55:33;;;;;;;6.53;3.73;;;5.50;94.50;;;;;;5075515;28;21034;-86
2021/04/17 00:57:58;;;;;;;6.97;3.97;;;5.50;94.90;;;;;;5057439;28;20456;-86
2021/04/17 01:00:24;;;;;;;3.80;2.50;;;5.50;95.00;;;;;;5075935;28;20406;-85
2021/04/17 01:03:08;;;;;;;4.40;2.97;;;5.50;95.40;;;;;;5056615;28;20660;-86
2021/04/17 01:05:34;;;;;;;6.60;3.47;;;5.50;95.40;;;;;;5074588;28;20476;-85
2021/04/17 01:08:05;;;;;;;10.33;3.10;;;5.50;95.40;;;;;;5056119;28;21240;-86
2021/04/17 01:10:54;;;;;;;6.00;3.30;;;5.50;95.30;;;;;;5074236;28;20390;-85
2021/04/17 01:13:21;;;;;;;6.70;3.23;;;5.50;95.40;;;;;;5056530;28;20486;-85
2021/04/17 01:15:48;;;;;;;6.53;2.50;;;5.50;95.50;;;;;;5056504;28;20550;-86
2021/04/17 01:18:17;;;;;;;10.30;3.30;;;5.50;95.10;;;;;;5056587;28;20437;-85
2021/04/17 01:20:52;;;;;;;6.70;3.30;;;5.50;95.00;;;;;;5055322;28;20447;-86
2021/04/17 01:23:42;;;;;;;;;;;;;;;;;;;;;
2021/04/17 01:26:38;;;;;;;5.33;2.80;;;5.50;95.60;;;;;;5074333;28;20765;-86
2021/04/17 01:29:04;;;;;;;6.20;3.10;;;5.50;95.50;;;;;;5022549;28;20496;-86
2021/04/17 01:31:41;;;;;;;6.43;3.13;;;5.50;95.80;;;;;;5057653;28;20419;-84
2021/04/17 01:34:13;;;;;;;3.83;2.43;;;5.50;95.60;;;;;;5081639;28;20408;-87
2021/04/17 01:36:39;;;;;;;8.53;3.27;;;5.50;95.60;;;;;;5081536;28;20413;-86
2021/04/17 01:39:11;;;;;;;6.57;2.93;;;5.40;95.80;;;;;;5079569;28;20512;-86
2021/04/17 01:41:46;;;;;;;5.53;2.37;;;5.40;96.00;;;;;;5062196;28;20410;-86
2021/04/17 01:44:19;;;;;;;4.07;2.10;;;5.40;96.00;;;;;;5070976;28;20428;-86
2021/04/17 01:46:48;;;;;;;5.50;2.60;;;5.40;95.80;;;;;;5066799;28;20472;-87
2021/04/17 01:49:15;;;;;;;7.40;2.57;;;5.40;95.60;;;;;;5062238;28;20486;-86
2021/04/17 01:51:43;;;;;;;6.70;2.80;;;5.40;95.50;;;;;;5062012;28;20449;-85
2021/04/17 01:54:28;;;;;;;;;;;;;;;;;;;;;
2021/04/17 01:57:08;;;;;;;3.77;2.20;;;5.40;95.70;;;;;;5078737;28;20485;-85
2021/04/17 01:59:37;;;;;;;4.50;2.60;;;5.40;95.60;;;;;;5084211;28;20394;-86
2021/04/17 02:02:11;;;;;;;4.90;2.70;;;5.40;95.60;;;;;;5060735;28;20435;-86
2021/04/17 02:04:48;;;;;;;6.37;2.53;;;5.40;95.60;;;;;;5059288;28;20445;-86
2021/04/17 02:07:14;;;;;;;5.00;2.73;;;5.40;95.60;;;;;;5075680;28;20463;-85
2021/04/17 02:09:40;;;;;;;3.93;2.33;;;5.40;95.60;;;;;;5057396;28;20425;-85
2021/04/17 02:12:06;;;;;;;4.90;2.50;;;5.40;95.50;;;;;;5075940;28;20224;-86
2021/04/17 02:14:32;;;;;;;3.90;2.77;;;5.40;95.50;;;;;;5076937;28;20440;-86
2021/04/17 02:17:17;;;;;;;6.67;2.63;;;5.30;95.60;;;;;;5076345;28;20405;-85
2021/04/17 02:19:52;;;;;;;6.03;2.43;;;5.30;95.80;;;;;;5058411;28;20325;-85
2021/04/17 02:22:19;;;;;;;7.47;2.33;;;5.30;95.80;;;;;;5057969;28;20416;-85
2021/04/17 02:24:45;;;;;;;4.10;2.67;;;5.30;96.00;;;;;;5057034;28;20425;-85
2021/04/17 02:27:11;;;;;;;3.03;2.47;;;5.30;96.10;;;;;;5074330;28;20437;-85
2021/04/17 02:29:37;;;;;;;4.90;2.90;;;5.30;96.10;;;;;;5055521;28;20224;-85
2021/04/17 02:32:03;;;;;;;6.90;2.13;;;5.20;96.40;;;;;;5055565;28;20441;-85
2021/04/17 02:34:29;;;;;;;8.77;3.27;;;5.20;96.60;;;;;;5055338;28;20270;-85
2021/04/17 02:36:54;;;;;;;4.90;2.63;;;5.20;96.80;;;;;;5055633;28;20198;-85
2021/04/17 02:39:20;;;;;;;6.47;3.07;;;5.20;97.20;;;;;;5055850;28;20182;-85
2021/04/17 02:41:46;;;;;;;3.40;2.50;;;5.10;97.30;;;;;;5073477;28;20176;-85
2021/04/17 02:44:11;;;;;;;6.93;2.83;;;5.10;97.30;;;;;;5055802;28;20634;-85
2021/04/17 02:46:37;;;;;;;8.20;2.80;;;5.10;97.30;;;;;;5055522;28;20266;-85
2021/04/17 02:49:03;;;;;;;5.37;3.17;;;5.10;97.30;;;;;;5055059;28;20226;-85
2021/04/17 02:51:28;;;;;;;4.43;2.87;;;5.10;97.30;;;;;;5055191;28;20194;-86
2021/04/17 02:53:54;;;;;;;4.37;2.50;;;5.10;97.30;;;;;;5073492;28;20789;-85
2021/04/17 02:56:20;;;;;;;3.90;2.57;;;5.00;97.30;;;;;;5055769;28;20660;-85
2021/04/17 02:58:46;;;;;;;8.93;3.43;;;5.00;97.30;;;;;;5056715;28;20357;-86
2021/04/17 03:01:11;;;;;;;6.00;2.60;;;5.00;97.30;;;;;;5057052;28;20915;-85
2021/04/17 03:03:37;;;;;;;7.20;3.30;;;4.90;97.30;;;;;;5057515;28;20185;-85
2021/04/17 03:06:03;;;;;;;5.10;3.07;;;4.90;97.30;;;;;;5057653;28;20664;-85
2021/04/17 03:08:29;;;;;;;5.70;2.63;;;4.90;97.30;;;;;;5057982;28;20229;-85
2021/04/17 03:10:54;;;;;;;3.83;2.67;;;4.80;97.30;;;;;;5057289;28;20414;-84
2021/04/17 03:13:20;;;;;;;4.00;2.60;;;4.80;97.30;;;;;;5057394;28;20171;-85
2021/04/17 03:15:45;;;;;;;8.00;2.90;;;4.70;97.30;;;;;;5057101;28;20633;-85
2021/04/17 03:18:12;;;;;;;5.50;2.83;;;4.70;97.30;;;;;;5057378;28;20214;-84
2021/04/17 03:20:38;;;;;;;4.17;2.40;;;4.80;97.30;;;;;;5057196;28;20175;-85
2021/04/17 03:23:04;;;;;;;4.13;3.03;;;4.70;97.30;;;;;;5057019;28;20791;-86
2021/04/17 03:25:30;;;;;;;5.97;3.23;;;4.70;97.30;;;;;;5055880;28;20417;-85
2021/04/17 03:27:56;;;;;;;3.70;2.70;;;4.70;97.30;;;;;;5056312;28;20457;-85
2021/04/17 03:30:27;;;;;;;3.73;2.40;;;4.70;97.30;;;;;;5056132;28;20877;-86
2021/04/17 03:32:55;;;;;;;6.93;2.33;;;4.80;97.30;;;;;;5056488;28;20491;-85
2021/04/17 03:35:21;;;;;;;3.67;3.00;;;4.80;97.30;;;;;;5055898;28;20416;-86
2021/04/17 03:37:46;;;;;;;3.37;2.43;;;4.80;97.30;;;;;;5056082;28;20430;-85
2021/04/17 03:40:13;;;;;;;5.10;3.63;;;4.80;97.30;;;;;;5055971;28;21073;-86
2021/04/17 03:42:39;;;;;;;5.07;2.60;;;4.70;97.30;;;;;;5055896;28;20223;-85
2021/04/17 03:45:06;;;;;;;5.50;2.80;;;4.70;97.30;;;;;;5059710;28;20428;-84
2021/04/17 03:47:32;;;;;;;5.00;2.83;;;4.70;97.30;;;;;;5089761;23;20559;-85
2021/04/17 03:49:57;;;;;;;8.73;3.00;;;4.70;97.30;;;;;;5017606;28;21169;-84
2021/04/17 03:52:23;;;;;;;2.90;2.60;;;4.60;97.30;;;;;;5018196;28;20182;-85
2021/04/17 03:54:49;;;;;;;3.80;2.80;;;4.60;97.30;;;;;;5018284;28;20255;-84
2021/04/17 03:57:14;;;;;;;6.70;2.70;;;4.60;97.30;;;;;;5017790;28;20187;-83
2021/04/17 03:59:40;;;;;;;5.63;3.00;;;4.60;97.30;;;;;;5018138;28;20227;-84
2021/04/17 04:02:05;;;;;;;4.80;2.40;;;4.60;97.30;;;;;;5018116;28;20176;-84
2021/04/17 04:04:31;;;;;;;4.57;2.50;;;4.60;97.30;;;;;;5018437;28;20200;-84
2021/04/17 04:06:57;;;;;;;2.80;2.40;;;4.60;97.30;;;;;;5018373;28;20176;-84
2021/04/17 04:09:22;;;;;;;7.07;2.40;;;4.60;97.30;;;;;;5017947;28;20247;-85
2021/04/17 04:11:48;;;;;;;3.30;2.30;;;4.50;97.30;;;;;;5018044;28;20211;-84
2021/04/17 04:14:14;;;;;;;3.90;2.50;;;4.50;97.30;;;;;;5018596;28;20187;-85
2021/04/17 04:16:40;;;;;;;2.43;2.23;;;4.50;97.30;;;;;;5035926;28;20610;-85
2021/04/17 04:19:06;;;;;;;4.13;2.50;;;4.50;97.30;;;;;;5036205;28;20493;-85
2021/04/17 04:21:31;;;;;;;7.40;2.60;;;4.50;97.30;;;;;;5018040;28;20200;-85
2021/04/17 04:23:57;;;;;;;5.47;2.30;;;4.50;97.30;;;;;;5019285;28;20234;-86
2021/04/17 04:26:22;;;;;;;5.27;2.10;;;4.50;97.30;;;;;;5019114;28;20738;-84
2021/04/17 04:28:48;;;;;;;4.60;2.10;;;4.50;97.30;;;;;;5019277;28;20206;-86
2021/04/17 04:31:14;;;;;;;4.67;1.90;;;4.50;97.30;;;;;;5019893;28;20169;-85
2021/04/17 04:33:39;;;;;;;4.10;2.57;;;4.40;97.30;;;;;;5019569;28;20177;-85
2021/04/17 04:36:05;;;;;;;3.20;2.43;;;4.40;97.30;;;;;;5037231;28;20192;-86
2021/04/17 04:38:31;;;;;;;7.60;2.00;;;4.40;97.30;;;;;;5019768;28;20204;-86
2021/04/17 04:41:18;;;;;;;5.37;2.43;;;4.30;97.30;;;;;;5019075;28;20424;-86
2021/04/17 04:43:44;;;;;;;3.67;2.10;;;4.30;97.30;;;;;;5019543;28;20763;-84
2021/04/17 04:46:10;;;;;;;10.63;2.50;;;4.30;97.30;;;;;;5019257;28;20422;-85
2021/04/17 04:48:35;;;;;;;3.10;2.30;;;4.30;97.30;;;;;;5018491;28;20228;-83
2021/04/17 04:51:01;;;;;;;3.93;2.30;;;4.30;97.30;;;;;;5017635;28;20182;-85
2021/04/17 04:53:27;;;;;;;5.53;2.07;;;4.30;97.30;;;;;;5018051;28;20176;-81
2021/04/17 04:55:52;;;;;;;4.47;2.37;;;4.30;97.30;;;;;;5017815;28;20230;-83
2021/04/17 04:58:18;;;;;;;3.80;2.30;;;4.40;97.30;;;;;;5018590;28;20197;-86
2021/04/17 05:00:44;;;;;;;6.47;2.60;;;4.40;97.30;;;;;;5037590;28;20183;-85
2021/04/17 05:03:09;;;;;;;3.67;2.60;;;4.40;97.30;;;;;;5016892;28;20180;-85
2021/04/17 05:05:35;;;;;;;3.73;2.30;;;4.40;97.30;;;;;;5017455;28;20176;-86
2021/04/17 05:08:00;;;;;;;3.90;2.27;;;4.40;97.30;;;;;;5017538;28;20205;-86
2021/04/17 05:10:27;;;;;;;3.70;2.40;;;4.40;97.30;;;;;;5024707;28;20527;-83
2021/04/17 05:12:52;;;;;;;4.23;2.43;;;4.40;97.30;;;;;;5032897;28;20168;-83
2021/04/17 05:15:51;;;;;;;4.60;2.30;;;4.50;97.30;;;;;;5018481;28;20499;-86
2021/04/17 05:23:23;;;;;;;5.53;2.73;;;4.50;97.30;;;;;;5029599;28;20467;-75
2021/04/17 05:25:49;;;;;;;4.90;2.80;;;4.60;97.30;;;;;;5014381;28;20414;-75
2021/04/17 05:28:15;;;;;;;4.33;2.67;;;4.60;97.30;;;;;;5013760;28;20701;-75
2021/04/17 05:30:41;;;;;;;7.03;2.87;;;4.60;97.30;;;;;;5014201;28;20707;-75
2021/04/17 05:33:06;;;;;;;4.93;2.27;;;4.60;97.30;;;;;;5014066;28;20180;-76
2021/04/17 05:35:32;;;;;;;6.73;2.60;;;4.70;97.30;;;;;;5014670;28;20424;-75
2021/04/17 05:37:58;;;;;;;3.10;2.33;;;4.70;97.30;;;;;;5014602;28;20193;-75
2021/04/17 05:40:24;;;;;;;3.10;2.60;;;4.70;97.30;;;;;;5014178;28;20643;-74
2021/04/17 05:42:49;;;;;;;4.90;2.80;;;4.70;97.30;;;;;;5013931;28;20181;-74
2021/04/17 05:45:15;;;;;;;4.50;2.53;;;4.70;97.30;;;;;;5014389;28;20450;-75
2021/04/17 05:47:41;;;;;;;6.10;3.07;;;4.80;97.30;;;;;;5013507;28;20287;-74
2021/04/17 05:50:07;;;;;;;4.93;2.43;;;4.80;97.30;;;;;;5013688;28;20810;-74
2021/04/17 05:52:33;;;;;;;4.70;2.40;;;4.80;97.30;;;;;;5014148;28;20216;-74
2021/04/17 05:54:59;;;;;;;5.30;2.90;;;4.80;97.30;;;;;;5013918;28;20451;-74
2021/04/17 05:57:24;;;;;;;7.47;3.27;;;4.90;97.30;;;;;;5007326;28;21071;-74
2021/04/17 05:59:50;;;;;;;6.67;2.73;;;4.90;97.30;;;;;;5029406;28;20175;-74
2021/04/17 06:02:16;;;;;;;4.30;2.60;;;4.90;97.30;;;;;;5013580;28;20619;-75
2021/04/17 06:04:42;;;;;;;6.33;2.97;;;4.90;97.30;;;;;;5013367;28;20217;-74
2021/04/17 06:07:07;;;;;;;8.20;2.90;;;4.90;97.30;;;;;;5027296;28;20407;-76
2021/04/17 06:09:33;;;;;;;3.70;2.37;;;4.90;97.30;;;;;;5012603;28;20276;-76
2021/04/17 06:11:59;;;;;;;9.30;2.70;;;4.90;97.30;;;;;;5014016;28;20184;-74
2021/04/17 06:14:25;;;;;;;3.80;2.60;;;4.90;97.30;;;;;;5013668;28;20279;-74
2021/04/17 06:16:51;;;;;;;4.43;2.43;;;4.90;97.30;;;;;;5028962;28;20489;-76
2021/04/17 06:19:17;;;;;;;4.93;3.10;;;5.00;97.30;;;;;;5012344;28;20177;-74
2021/04/17 06:21:42;;;;;;;5.70;2.93;;;5.00;97.30;;;;;;5011886;28;20489;-75
2021/04/17 06:24:09;;;;;;;7.13;3.40;;;5.00;97.30;;;;;;5006128;28;20187;-76
2021/04/17 06:26:34;;;;;;;9.70;3.47;;;5.00;97.30;;;;;;5013032;28;20183;-76
2021/04/17 06:29:00;;;;;;;5.87;2.87;;;5.00;97.30;;;;;;5010731;28;21025;-75
2021/04/17 06:31:26;;;;;;;7.10;3.80;;;5.00;97.30;;;;;;5013218;28;20195;-75
2021/04/17 06:33:51;;;;;;;14.90;5.47;;;5.00;97.30;;;;;;5013402;28;20175;-75
2021/04/17 06:36:17;;;;;;;19.87;4.20;;;5.10;97.30;;;;;;5032257;28;20169;-75
2021/04/17 06:38:43;;;;;;;11.37;4.13;;;5.10;97.30;;;;;;5014516;28;20180;-75
2021/04/17 06:41:09;;;;;;;10.67;3.47;;;5.10;97.30;;;;;;5024717;28;20197;-76
2021/04/17 06:43:36;;;;;;;9.20;4.23;;;5.10;97.30;;;;;;4994904;28;20814;-74
2021/04/17 06:46:03;;;;;;;6.70;4.23;;;5.10;97.30;;;;;;5012245;28;20182;-74
2021/04/17 06:48:31;;;;;;;4.70;3.00;;;5.20;97.30;;;;;;5013224;28;20455;-74
2021/04/17 06:50:57;;;;;;;4.80;3.17;;;5.20;97.30;;;;;;5011559;28;20575;-73
2021/04/17 06:53:23;;;;;;;10.33;3.60;;;5.20;97.30;;;;;;5013672;28;20426;-74
2021/04/17 06:55:50;;;;;;;7.30;3.57;;;5.30;97.30;;;;;;5031314;28;20407;-74
2021/04/17 06:58:20;;;;;;;5.93;2.90;;;5.20;97.30;;;;;;5013239;28;20498;-74
2021/04/17 07:00:46;;;;;;;8.03;3.43;;;5.30;97.30;;;;;;5013477;28;20667;-74
2021/04/17 07:03:14;;;;;;;8.07;3.63;;;5.30;97.30;;;;;;5013880;28;20481;-75
2021/04/17 07:05:41;;;;;;;7.73;3.93;;;5.40;97.30;;;;;;5029620;28;20922;-76
2021/04/17 07:08:06;;;;;;;10.77;3.63;;;5.40;97.30;;;;;;5014443;28;20450;-75
2021/04/17 07:10:32;;;;;;;7.67;3.60;;;5.50;97.30;;;;;;5013794;28;20473;-75
2021/04/17 07:13:11;;;;;;;8.03;3.53;;;5.60;97.30;;;;;;5014271;28;20164;-75
2021/04/17 07:15:38;;;;;;;11.53;3.40;;;5.60;97.30;;;;;;5014080;28;20286;-75
2021/04/17 07:18:40;;;;;;;9.37;4.20;;;5.70;97.30;;;;;;5016157;28;20423;-75
2021/04/17 07:21:14;;;;;;;6.70;3.63;;;5.80;97.30;;;;;;4973698;28;20452;-75
2021/04/17 07:23:45;;;;;;;8.50;3.70;;;6.00;97.30;;;;;;5008521;28;20952;-75
2021/04/17 07:26:18;;;;;;;6.17;3.77;;;6.00;97.30;;;;;;5016454;28;20426;-73
2021/04/17 07:29:00;;;;;;;6.90;3.87;;;6.00;97.30;;;;;;5017547;28;20896;-73
2021/04/17 07:31:33;;;;;;;8.13;3.70;;;6.00;97.30;;;;;;5034185;28;20804;-74
2021/04/17 07:34:13;;;;;;;6.80;3.50;;;6.10;97.30;;;;;;5013858;28;20915;-73
2021/04/17 07:36:55;;;;;;;7.23;3.60;;;6.20;97.30;;;;;;5017156;28;20419;-73
2021/04/17 07:39:37;;;;;;;10.10;3.70;;;6.30;97.30;;;;;;5034142;28;20419;-74
2021/04/17 07:42:13;;;;;;;4.80;3.23;;;6.30;97.30;;;;;;5035006;28;20439;-74
2021/04/17 07:44:48;;;;;;;4.83;2.83;;;6.40;97.30;;;;;;5009987;28;20419;-74
2021/04/17 07:47:30;;;;;;;4.50;3.17;;;6.40;97.30;;;;;;5015455;28;20422;-75
2021/04/17 07:50:05;;;;;;;8.20;3.47;;;6.40;97.30;;;;;;4995283;28;20903;-75
2021/04/17 07:52:34;;;;;;;4.90;3.40;;;6.40;97.30;;;;;;4996238;28;20435;-74
2021/04/17 07:55:00;;;;;;;7.87;3.73;;;6.40;97.30;;;;;;4996172;28;20416;-75
2021/04/17 07:57:36;;;;;;;5.63;3.30;;;6.40;97.30;;;;;;5014919;28;20393;-73
2021/04/17 08:00:04;;;;;;;9.20;3.80;;;6.50;97.30;;;;;;4996334;28;20180;-74
2021/04/17 08:02:31;;;;;;;3.80;3.30;;;6.60;97.30;;;;;;4996960;28;20435;-76
2021/04/17 08:04:59;;;;;;;9.00;3.67;;;6.70;97.30;;;;;;4997350;28;20417;-75
2021/04/17 08:07:25;;;;;;;9.87;3.67;;;6.70;97.30;;;;;;5014823;28;20404;-75
2021/04/17 08:09:53;;;;;;;14.60;3.83;;;6.70;97.30;;;;;;4997725;28;20436;-75
2021/04/17 08:12:20;;;;;;;6.90;3.90;;;6.80;97.30;;;;;;4997121;28;20436;-74
2021/04/17 08:14:46;;;;;;;6.40;3.10;;;6.90;97.30;;;;;;4997251;28;20416;-75
2021/04/17 08:17:12;;;;;;;8.63;3.60;;;6.90;97.30;;;;;;4997360;28;20416;-74
2021/04/17 08:19:38;;;;;;;7.60;3.30;;;7.10;97.30;;;;;;4997052;28;20435;-74
2021/04/17 08:22:04;;;;;;;5.43;3.00;;;7.10;97.30;;;;;;4996589;28;20241;-75
2021/04/17 08:24:31;;;;;;;7.50;3.30;;;7.20;97.30;;;;;;4997187;28;20459;-75
2021/04/17 08:26:59;;;;;;;5.73;3.40;;;7.30;97.30;;;;;;4997628;28;20463;-75
2021/04/17 08:29:52;;;;;;;6.40;4.10;;;7.30;97.30;;;;;;4996337;28;20974;-75
2021/04/17 08:32:28;;;;;;;8.73;3.77;;;7.40;97.30;;;;;;4997303;28;20431;-76
2021/04/17 08:35:01;;;;;;;6.03;2.90;;;7.40;97.30;;;;;;4996887;28;20504;-75
2021/04/17 08:37:27;;;;;;;6.40;3.93;;;7.50;97.30;;;;;;4996410;28;20458;-75
2021/04/17 08:39:54;;;;;;;6.70;4.07;;;7.60;97.30;;;;;;4996340;28;20931;-76
2021/04/17 08:42:46;;;;;;;5.67;3.53;;;7.60;97.30;;;;;;4995921;28;20432;-74
2021/04/17 08:45:19;;;;;;;7.70;3.60;;;7.50;97.30;;;;;;5013622;28;20392;-74
2021/04/17 08:47:50;;;;;;;8.10;3.67;;;7.50;97.30;;;;;;5013885;28;20452;-74
2021/04/17 08:50:34;;;;;;;8.77;4.07;;;7.50;97.30;;;;;;4995650;28;20427;-74
2021/04/17 08:53:04;;;;;;;9.63;3.97;;;7.50;97.30;;;;;;4996350;28;20458;-74
2021/04/17 08:55:36;;;;;;;7.73;4.00;;;7.50;97.30;;;;;;4995878;28;20780;-74
2021/04/17 08:58:15;;;;;;;10.30;4.00;;;7.50;97.30;;;;;;5007367;28;20509;-73
2021/04/17 09:00:52;;;;;;;11.77;4.30;;;7.50;97.30;;;;;;5015385;28;20445;-74
2021/04/17 09:03:36;;;;;;;10.93;4.20;;;7.40;97.30;;;;;;5033435;28;20395;-74
2021/04/17 09:06:03;;;;;;;6.83;3.57;;;7.50;97.30;;;;;;5015067;28;20922;-74
2021/04/17 09:08:28;;;;;;;12.07;4.20;;;7.60;97.30;;;;;;5026665;28;20958;-74
2021/04/17 09:10:54;;;;;;;6.63;4.50;;;7.60;97.30;;;;;;5012622;28;20554;-73
2021/04/17 09:13:26;;;;;;;6.90;4.17;;;7.70;97.30;;;;;;5032582;28;20196;-74
2021/04/17 09:15:51;;;;;;;6.73;4.10;;;7.70;97.30;;;;;;5015117;28;20411;-74
2021/04/17 09:18:34;;;;;;;5.37;3.60;;;7.80;97.30;;;;;;5033174;28;20893;-74
2021/04/17 09:21:06;;;;;;;7.10;3.90;;;7.80;97.30;;;;;;5014398;28;20200;-75
2021/04/17 09:23:42;;;;;;;8.87;3.93;;;7.80;97.30;;;;;;5014539;28;20431;-74
2021/04/17 09:26:08;;;;;;;9.60;3.80;;;7.90;97.30;;;;;;5012028;28;20419;-74
2021/04/17 09:28:39;;;;;;;5.63;3.93;;;7.80;97.30;;;;;;5014624;28;20459;-73
2021/04/17 09:31:06;;;;;;;4.80;3.43;;;7.80;97.30;;;;;;5012793;28;20436;-73
2021/04/17 09:33:31;;;;;;;4.57;3.20;;;7.80;97.30;;;;;;5015095;28;20411;-74
2021/04/17 09:35:57;;;;;;;7.70;3.20;;;7.90;97.30;;;;;;5014555;28;20549;-74
2021/04/17 09:38:30;;;;;;;5.63;3.20;;;7.90;96.50;;;;;;5032275;28;20199;-75
2021/04/17 09:40:56;;;;;;;6.80;3.17;;;7.90;96.60;;;;;;5013834;28;20729;-74
2021/04/17 09:43:26;;;;;;;6.27;3.40;;;8.00;97.00;;;;;;5014220;28;20415;-74
2021/04/17 09:45:53;;;;;;;6.60;3.60;;;8.00;97.20;;;;;;5013899;28;20419;-73
2021/04/17 09:48:21;;;;;;;7.60;3.60;;;8.10;97.00;;;;;;5024337;23;20495;-74
2021/04/17 09:50:48;;;;;;;5.80;3.90;;;8.10;96.80;;;;;;5035410;28;20496;-72
2021/04/17 09:53:22;;;;;;;7.27;4.27;;;8.10;96.60;;;;;;5034341;28;20410;-72
2021/04/17 09:55:49;;;;;;;8.23;3.83;;;8.10;97.30;;;;;;5033610;28;20421;-72
2021/04/17 09:58:44;;;;;;;11.13;4.13;;;8.20;97.30;;;;;;5033792;28;20418;-72
2021/04/17 10:01:14;;;;;;;6.67;3.80;;;8.20;97.30;;;;;;5029652;28;20445;-71
2021/04/17 10:03:40;;;;;;;7.00;3.77;;;8.30;97.30;;;;;;5033634;28;20442;-71
2021/04/17 10:06:27;;;;;;;6.47;3.80;;;8.30;97.30;;;;;;5034360;28;20410;-71
2021/04/17 10:08:54;;;;;;;5.20;4.00;;;8.30;97.30;;;;;;5033538;28;20453;-71
2021/04/17 10:11:26;;;;;;;6.10;4.00;;;8.30;97.30;;;;;;5051598;28;20564;-71
2021/04/17 10:13:53;;;;;;;6.13;3.40;;;8.30;97.30;;;;;;5034150;28;20414;-71
2021/04/17 10:16:40;;;;;;;11.70;3.87;;;8.30;97.30;;;;;;5051905;28;20885;-70
2021/04/17 10:19:13;;;;;;;6.87;3.50;;;8.30;97.30;;;;;;5034100;28;20418;-71
2021/04/17 10:21:39;;;;;;;8.03;4.20;;;8.30;97.30;;;;;;5035107;28;20445;-71
2021/04/17 10:24:40;;;;;;;12.80;3.50;;;8.30;96.90;;;;;;5035980;28;20426;-72
2021/04/17 10:27:13;;;;;;;6.97;3.60;;;8.20;97.30;;;;;;5018135;28;20511;-71
2021/04/17 10:29:53;;;;;;;6.00;3.90;;;8.20;97.30;;;;;;5051301;28;20932;-71
2021/04/17 10:32:28;;;;;;;13.70;3.70;;;8.20;97.30;;;;;;5031240;28;20427;-72
2021/04/17 10:35:09;;;;;;;8.60;4.00;;;8.20;97.30;;;;;;5041480;28;20398;-72
2021/04/17 10:37:54;;;;;;;12.63;3.73;;;8.10;97.10;;;;;;5051862;28;20456;-74
2021/04/17 10:40:26;;;;;;;7.57;4.20;;;8.10;97.30;;;;;;5018862;28;20914;-73
2021/04/17 10:42:54;;;;;;;9.07;3.93;;;8.00;97.30;;;;;;5052769;28;20800;-75
2021/04/17 10:45:31;;;;;;;8.60;3.73;;;8.00;97.30;;;;;;5033954;28;20430;-74
2021/04/17 10:47:59;;;;;;;10.30;3.77;;;7.90;97.30;;;;;;5034682;28;21013;-72
2021/04/17 10:50:26;;;;;;;5.60;4.00;;;7.90;97.30;;;;;;5034138;28;20429;-73
2021/04/17 10:52:58;;;;;;;7.60;3.73;;;7.90;97.30;;;;;;5055481;28;20414;-73
2021/04/17 10:55:37;;;;;;;7.40;4.10;;;7.90;97.30;;;;;;5040827;28;20410;-72
2021/04/17 10:58:06;;;;;;;7.37;3.07;;;8.10;97.30;;;;;;5035288;28;20825;-72
2021/04/17 11:00:34;;;;;;;6.20;3.70;;;8.20;97.30;;;;;;5057719;28;20405;-71
2021/04/17 11:03:01;;;;;;;8.30;3.23;;;8.40;97.20;;;;;;5039648;28;20432;-73
2021/04/17 11:05:31;;;;;;;6.63;3.27;;;8.50;95.70;;;;;;5057442;28;20783;-72
2021/04/17 11:08:30;;;;;;;6.40;3.10;;;8.60;94.20;;;;;;5038921;28;20592;-72
2021/04/17 11:10:56;;;;;;;6.90;3.00;;;8.60;94.70;;;;;;5035368;28;20438;-72
2021/04/17 11:13:32;;;;;;;5.67;2.90;;;8.70;93.50;;;;;;5038956;28;20414;-74
2021/04/17 11:15:58;;;;;;;5.20;3.80;;;8.70;92.60;;;;;;5038281;28;20175;-73
2021/04/17 11:18:24;;;;;;;8.93;3.93;;;8.80;93.70;;;;;;5038880;28;20422;-72
2021/04/17 11:20:50;;;;;;;5.10;3.57;;;8.90;93.60;;;;;;5038283;28;20233;-72
2021/04/17 11:23:34;;;;;;;5.80;3.53;;;8.90;93.10;;;;;;5038849;28;20530;-71
2021/04/17 11:26:02;;;;;;;7.60;3.20;;;8.90;92.80;;;;;;5036617;28;20266;-73
2021/04/17 11:28:28;;;;;;;10.50;3.53;;;8.80;93.30;;;;;;5038631;28;20453;-73
2021/04/17 11:30:55;;;;;;;6.73;3.87;;;8.90;93.30;;;;;;5037305;28;20441;-74
2021/04/17 11:33:21;;;;;;;12.43;3.17;;;9.00;93.90;;;;;;5038458;28;20414;-73
2021/04/17 11:38:15;;;;;;;5.80;3.83;;;9.00;92.70;;;;;;5062799;28;20848;-72
2021/04/17 11:40:41;;;;;;;8.03;3.50;;;9.10;93.60;;;;;;5066402;28;20425;-71
2021/04/17 11:43:06;;;;;;;10.73;3.50;;;9.20;93.90;;;;;;5060247;28;20935;-72
2021/04/17 11:45:32;;;;;;;5.83;3.33;;;9.30;92.20;;;;;;5047299;28;20916;-72
2021/04/17 11:47:58;;;;;;;16.60;4.07;;;9.30;92.10;;;;;;5066514;28;20269;-73
2021/04/17 11:50:23;;;;;;;5.77;3.40;;;9.20;92.60;;;;;;5067084;28;20683;-73
2021/04/17 11:52:49;;;;;;;11.63;3.97;;;9.10;92.40;;;;;;5047352;28;20184;-74
2021/04/17 11:55:15;;;;;;;6.13;3.80;;;9.10;92.10;;;;;;5067557;28;20195;-72
2021/04/17 11:57:41;;;;;;;7.53;4.07;;;9.10;92.30;;;;;;5048221;28;20258;-74
2021/04/17 12:00:08;;;;;;;8.10;4.10;;;9.20;92.90;;;;;;5065284;28;20703;-75
2021/04/17 12:02:33;;;;;;;5.47;3.63;;;9.30;93.40;;;;;;5049180;28;20437;-72
2021/04/17 12:04:59;;;;;;;7.63;3.60;;;9.30;92.10;;;;;;5044065;28;20430;-72
2021/04/17 12:07:25;;;;;;;6.00;3.73;;;9.30;92.30;;;;;;5044527;28;20202;-72
2021/04/17 12:09:53;;;;;;;6.53;3.80;;;9.30;92.20;;;;;;5061614;28;20180;-73
2021/04/17 12:12:19;;;;;;;5.40;3.80;;;9.40;93.20;;;;;;5043772;28;20192;-72
2021/04/17 12:14:44;;;;;;;8.43;3.60;;;9.50;93.20;;;;;;5044514;28;20413;-72
2021/04/17 12:17:10;;;;;;;7.90;3.50;;;9.70;92.60;;;;;;5063300;28;20401;-71
2021/04/17 12:19:35;;;;;;;8.30;4.17;;;9.60;91.40;;;;;;5050361;28;20601;-73
2021/04/17 12:22:01;;;;;;;11.30;4.17;;;9.60;91.60;;;;;;5034044;28;20274;-73
2021/04/17 12:24:27;;;;;;;7.20;3.83;;;9.60;91.80;;;;;;5035495;28;20179;-73
2021/04/17 12:26:53;;;;;;;11.03;3.80;;;9.50;91.80;;;;;;5034500;28;20280;-74
2021/04/17 12:29:19;;;;;;;10.70;3.80;;;9.60;91.80;;;;;;5035103;28;20261;-74
2021/04/17 12:31:45;;;;;;;8.07;3.60;;;9.70;92.10;;;;;;5034518;28;20442;-74
2021/04/17 12:34:11;;;;;;;11.60;4.97;;;9.70;91.20;;;;;;5035359;28;20229;-74
2021/04/17 12:36:36;;;;;;;5.80;3.43;;;9.70;90.40;;;;;;5035581;28;20215;-72
2021/04/17 12:39:03;;;;;;;8.70;4.13;;;9.70;91.40;;;;;;5036375;28;20199;-73
2021/04/17 12:41:29;;;;;;;9.20;4.40;;;9.70;91.20;;;;;;5068416;28;20203;-73
2021/04/17 12:43:57;;;;;;;10.03;3.97;;;9.80;91.10;;;;;;5040026;28;20771;-73
2021/04/17 12:46:24;;;;;;;8.57;4.00;;;9.90;91.40;;;;;;5035556;28;20184;-72
2021/04/17 12:48:49;;;;;;;8.37;4.07;;;9.90;90.50;;;;;;5034318;28;21156;-72
2021/04/17 12:51:15;;;;;;;9.60;3.73;;;10.10;91.10;;;;;;5034810;28;20434;-72
2021/04/17 12:53:41;;;;;;;12.93;3.60;;;10.30;90.50;;;;;;5057449;28;20183;-72
2021/04/17 12:56:06;;;;;;;10.10;4.57;;;10.50;89.80;;;;;;5038249;28;20631;-72
2021/04/17 12:58:37;;;;;;;6.13;3.87;;;10.70;89.30;;;;;;5036496;28;20216;-72
2021/04/17 13:01:03;;;;;;;14.40;3.87;;;10.70;88.20;;;;;;5036473;28;20261;-72
2021/04/17 13:03:29;;;;;;;10.80;4.07;;;10.90;88.70;;;;;;5034892;28;20426;-73
2021/04/17 13:06:03;;;;;;;9.90;4.47;;;11.10;88.80;;;;;;5051736;28;20861;-73
2021/04/17 13:08:30;;;;;;;15.90;4.57;;;11.20;87.40;;;;;;5054853;28;20198;-72
2021/04/17 13:10:58;;;;;;;12.43;4.23;;;11.00;87.10;;;;;;5035491;28;20918;-71
2021/04/17 13:13:24;;;;;;;9.40;3.90;;;10.90;87.90;;;;;;5035037;28;20415;-71
2021/04/17 13:15:50;;;;;;;7.77;3.53;;;10.70;87.70;;;;;;5052944;28;20425;-72